• Join FlightAware (Why Join?)
  • Login
  • US Flag 
11:41PM EDT


 

Airport Tracker/Info


-or-


 

Live Flight TrackerFlight Track Log ✈ N98738 ✈ 21-Aug-2013 ✈ KRFD - KPWK

Flight Track Log - Related Links

Times and Time Zones

All times are in EDT time to prevent confusion due to time zone crossing. See the N98738 flight status page for this flight to view local times or setup timezone preferences in your user account.

Time Position Orientation Groundspeed Altitude Reporting Facility
EDT Latitude Longitude Course Direction KTS MPH feet Rate Location/Type
03:51PM 42.1775 -88.9942 74° East 67 77 2,500  Level Chicago Center
03:52PM 42.1911 -88.9569 64° Northeast 107 123 3,100 240 Climbing Chicago Center
03:53PM 42.2072 -88.9200 60° Northeast 111 128 3,000 -60 Descending Chicago Center
03:54PM 42.2228 -88.8828 61° Northeast 114 131 3,000  Level Chicago Center
03:55PM 42.2411 -88.8425 58° Northeast 122 140 3,000  Level Chicago Center
03:56PM 42.2855 -88.8734 74° East  Level FlightAware Approximate
03:56PM 42.2622 -88.7964 58° Northeast 123 142 3,000  Level Chicago Center
03:57PM 42.2943 -88.8324 74° East  Level FlightAware Approximate
03:57PM 42.2797 -88.7594 57° Northeast 121 139 3,000  Level Chicago Center
03:59PM 42.2958 -88.7172 63° Northeast 124 143 3,000  Level Chicago Center
04:00PM 42.3092 -88.6775 66° East 120 138 3,000  Level Chicago Center
04:01PM 42.3258 -88.6381 60° Northeast 120 138 3,000  Level Chicago Center
04:02PM 42.3458 -88.5908 60° Northeast 122 140 3,000  Level Chicago Center
04:03PM 42.3525 -88.5458 79° East 126 145 3,000  Level Chicago Center
04:04PM 42.3561 -88.5019 84° East 121 139 3,000  Level Chicago Center
04:05PM 42.3597 -88.4583 84° East 120 138 3,000  Level Chicago Center
04:06PM 42.3636 -88.4142 83° East 120 138 3,000  Level Chicago Center
04:07PM 42.3675 -88.3725 83° East 117 135 3,000  Level Chicago Center
04:08PM 42.3725 -88.3217 82° East 115 132 3,000  Level Chicago Center
04:09PM 42.3758 -88.2786 84° East 115 132 3,000  Level Chicago Center
04:10PM 42.3803 -88.2350 82° East 116 133 3,000  Level Chicago Center
04:11PM 42.3767 -88.1933 97° East 113 130 3,000  Level Chicago Center
04:12PM 42.3686 -88.1500 104° East 104 120 3,000  Level Chicago Center
04:13PM 42.3628 -88.1108 101° East 107 123 3,000  Level Chicago Center
04:14PM 42.3542 -88.0678 105° East 113 130 3,000  Level Chicago Center
04:15PM 42.3394 -88.0367 123° Southeast 107 123 3,000  Level Chicago Center
04:16PM 42.3208 -88.0089 132° Southeast 104 120 3,000 -60 Level Chicago Center
04:17PM 42.2981 -87.9997 163° South 94 108 2,900 -120 Descending Chicago Center
04:18PM 42.2689 -87.9847 159° South 92 106 2,800 -60 Descending Chicago Center
04:19PM 42.2450 -87.9725 159° South 93 107 2,800 -120 Level Chicago Center
04:20PM 42.2214 -87.9586 156° South 92 106 2,600 -300 Descending Chicago Center
04:21PM 42.1964 -87.9472 161° South 94 108 2,200 -300 Descending Chicago Center
04:22PM 42.1717 -87.9353 160° South 94 108 2,000 -240 Descending Chicago Center